createdAt,value
2018-11-29T00:00:56.569Z,79.43
2018-11-29T00:01:56.568Z,79.52
2018-11-29T00:02:56.273Z,79.62
2018-11-29T00:03:56.255Z,79.33
2018-11-29T00:04:56.234Z,80.66
2018-11-29T00:05:56.250Z,80.29
2018-11-29T00:06:56.452Z,81.14
2018-11-29T00:07:56.431Z,80.19
2018-11-29T00:08:56.160Z,80.19
2018-11-29T00:09:56.395Z,80.86
2018-11-29T00:10:56.119Z,80.47
2018-11-29T00:11:56.103Z,81.05
2018-11-29T00:12:56.335Z,82.19
2018-11-29T00:13:56.063Z,82.19
2018-11-29T00:14:56.295Z,81.43
2018-11-29T00:15:56.048Z,81.62
2018-11-29T00:16:56.010Z,82.67
2018-11-29T00:17:56.238Z,81.14
2018-11-29T00:18:55.966Z,81.9
2018-11-29T00:19:55.946Z,82.09
2018-11-29T00:20:55.926Z,82.28
2018-11-29T00:21:56.174Z,82.09
2018-11-29T00:22:56.139Z,81.9
2018-11-29T00:23:56.124Z,80.76
2018-11-29T00:24:55.848Z,80.66
2018-11-29T00:25:55.851Z,80.76
2018-11-29T00:26:55.807Z,81.05
2018-11-29T00:27:56.043Z,81.05
2018-11-29T00:28:56.023Z,81.14
2018-11-29T00:29:56.006Z,80.86
2018-11-29T00:30:55.730Z,81.24
2018-11-29T00:31:55.712Z,81.05
2018-11-29T00:32:55.950Z,81.05
2018-11-29T00:33:55.922Z,80.19
2018-11-29T00:34:55.660Z,80.86
2018-11-29T00:35:55.892Z,80.1
2018-11-29T00:36:55.867Z,80.95
2018-11-29T00:37:55.594Z,81.24
2018-11-29T00:38:55.836Z,81.24
2018-11-29T00:39:55.812Z,80.66
2018-11-29T00:40:55.537Z,81.14
2018-11-29T00:41:55.517Z,81.05
2018-11-29T00:42:55.757Z,81.14
2018-11-29T00:43:55.491Z,81.81
2018-11-29T00:44:55.712Z,81.05
2018-11-29T00:45:55.454Z,80.95
2018-11-29T00:46:55.683Z,80.38
2018-11-29T00:47:55.660Z,80.66
2018-11-29T00:48:55.399Z,81.43
2018-11-29T00:49:55.616Z,81.24
2018-11-29T00:50:55.343Z,80.95
2018-11-29T00:51:55.323Z,80.95
2018-11-29T00:52:55.305Z,81.14
2018-11-29T00:53:55.538Z,81.14
2018-11-29T00:54:55.521Z,80.29
2018-11-29T00:55:55.249Z,80.19
2018-11-29T00:56:55.493Z,78.19
2018-11-29T00:57:55.461Z,77.53
2018-11-29T00:58:55.454Z,77.62
2018-11-29T00:59:55.432Z,76.29
2018-11-29T01:00:55.154Z,75.81
2018-11-29T01:01:55.400Z,75.62
2018-11-29T01:02:55.372Z,74.67
2018-11-29T01:03:55.092Z,74.39
2018-11-29T01:04:55.074Z,74.01
2018-11-29T01:05:55.308Z,74.77
2018-11-29T01:06:55.290Z,75.43
2018-11-29T01:07:55.270Z,75.62
2018-11-29T01:08:55.250Z,75.72
2018-11-29T01:09:55.234Z,75.81
2018-11-29T01:10:54.962Z,76.29
2018-11-29T01:11:55.205Z,76.86
2018-11-29T01:12:54.921Z,76.2
2018-11-29T01:13:55.160Z,76.1
2018-11-29T01:14:54.885Z,76.39
2018-11-29T01:15:55.127Z,76.67
2018-11-29T01:16:54.846Z,77.34
2018-11-29T01:17:55.284Z,77.53
2018-11-29T01:18:54.805Z,77.34
2018-11-29T01:19:55.045Z,77.15
2018-11-29T01:20:54.773Z,77.53
2018-11-29T01:21:54.754Z,77.62
2018-11-29T01:22:54.734Z,77.43
2018-11-29T01:23:54.715Z,77.81
2018-11-29T01:24:54.947Z,77.34
2018-11-29T01:25:54.681Z,77.34
2018-11-29T01:26:54.906Z,77.91
2018-11-29T01:27:54.637Z,77.81
2018-11-29T01:28:54.871Z,78.38
2018-11-29T01:29:54.850Z,78.38
2018-11-29T01:30:54.843Z,78.29
2018-11-29T01:31:54.811Z,78
2018-11-29T01:32:54.837Z,78.77
2018-11-29T01:33:54.778Z,79.19
2018-11-29T01:34:54.757Z,78.61
2018-11-29T01:35:54.491Z,78.33
2018-11-29T01:36:54.721Z,78.23
2018-11-29T01:37:54.451Z,78.52
2018-11-29T01:38:54.428Z,78.33
2018-11-29T01:39:54.666Z,78.23
2018-11-29T01:40:54.391Z,77.85
2018-11-29T01:41:54.626Z,78.33
2018-11-29T01:42:54.607Z,78.42
2018-11-29T01:43:54.588Z,78.42
2018-11-29T01:44:54.314Z,78.77
2018-11-29T01:45:54.296Z,78.9
2018-11-29T01:46:54.279Z,79.72
2018-11-29T01:47:54.261Z,78.99
2018-11-29T01:48:54.497Z,79.57
2018-11-29T01:49:54.476Z,80.33
2018-11-29T01:50:54.207Z,80.71
2018-11-29T01:51:54.191Z,80.23
2018-11-29T01:52:54.166Z,81.28
2018-11-29T01:53:54.408Z,80.9
2018-11-29T01:54:54.381Z,80.8
2018-11-29T01:55:54.369Z,81.95
2018-11-29T01:56:54.342Z,81.66
2018-11-29T01:57:54.326Z,82.23
2018-11-29T01:58:54.338Z,81.09
2018-11-29T01:59:54.035Z,81.66
2018-11-29T02:00:54.015Z,81.76
2018-11-29T02:01:54.257Z,81.66
2018-11-29T02:02:54.261Z,82.04
2018-11-29T02:03:54.213Z,82.99
2018-11-29T02:04:53.944Z,82.9
2018-11-29T02:05:53.927Z,82.99
2018-11-29T02:06:53.905Z,82.32
2018-11-29T02:07:54.147Z,82.23
2018-11-29T02:08:53.863Z,81.85
2018-11-29T02:09:54.105Z,82.14
2018-11-29T02:10:54.084Z,81.85
2018-11-29T02:11:54.063Z,81.18
2018-11-29T02:12:53.790Z,82.23
2018-11-29T02:13:53.771Z,81.47
2018-11-29T02:14:53.753Z,82.14
2018-11-29T02:15:53.987Z,82.04
2018-11-29T02:16:53.969Z,82.14
2018-11-29T02:17:53.696Z,82.14
2018-11-29T02:18:53.933Z,82.99
2018-11-29T02:19:53.660Z,82.14
2018-11-29T02:20:53.642Z,82.04
2018-11-29T02:21:53.621Z,81.47
2018-11-29T02:22:53.855Z,81.85
2018-11-29T02:23:53.866Z,81.76
2018-11-29T02:24:53.566Z,81.56
2018-11-29T02:25:53.804Z,81.56
2018-11-29T02:26:53.782Z,82.14
2018-11-29T02:27:53.764Z,81.95
2018-11-29T02:28:53.743Z,82.04
2018-11-29T02:29:53.725Z,81.85
2018-11-29T02:30:53.455Z,82.14
2018-11-29T02:31:53.692Z,82.32
2018-11-29T02:32:53.414Z,82.9
2018-11-29T02:33:53.659Z,82.9
2018-11-29T02:34:53.640Z,83.28
2018-11-29T02:35:53.631Z,83.18
2018-11-29T02:36:53.616Z,83.18
2018-11-29T02:37:53.320Z,83.94
2018-11-29T02:38:53.578Z,83.22
2018-11-29T02:39:53.574Z,83.75
2018-11-29T02:40:53.523Z,84.61
2018-11-29T02:41:53.247Z,84.46
2018-11-29T02:42:53.490Z,85.28
2018-11-29T02:43:53.212Z,85.6
2018-11-29T02:44:53.193Z,85.18
2018-11-29T02:45:53.256Z,85.41
2018-11-29T02:46:53.158Z,85.8
2018-11-29T02:47:53.147Z,85.41
2018-11-29T02:48:53.120Z,85.32
2018-11-29T02:49:53.104Z,85.99
2018-11-29T02:50:53.353Z,85.8
2018-11-29T02:51:53.316Z,86.18
2018-11-29T02:52:53.298Z,86.08
2018-11-29T02:53:53.279Z,85.51
2018-11-29T02:54:53.293Z,84.94
2018-11-29T02:55:53.250Z,85.18
2018-11-29T02:56:52.984Z,85.7
2018-11-29T02:57:52.952Z,85.32
2018-11-29T02:58:53.198Z,85.99
2018-11-29T02:59:53.173Z,85.99
2018-11-29T03:00:53.148Z,85.13
2018-11-29T03:01:53.133Z,85.13
2018-11-29T03:02:53.108Z,85.8
2018-11-29T03:03:52.843Z,85.51
2018-11-29T03:04:53.086Z,85.51
2018-11-29T03:05:52.802Z,85.28
2018-11-29T03:06:52.787Z,85.51
2018-11-29T03:07:53.023Z,85.41
2018-11-29T03:08:53.013Z,85.08
2018-11-29T03:09:53.013Z,85.6
2018-11-29T03:10:52.714Z,85.6
2018-11-29T03:11:52.942Z,85.18
2018-11-29T03:12:52.936Z,85.56
2018-11-29T03:13:52.950Z,85.28
2018-11-29T03:14:52.946Z,85.13
2018-11-29T03:15:52.875Z,85.51
2018-11-29T03:16:52.620Z,85.51
2018-11-29T03:17:53.034Z,86.08
2018-11-29T03:18:52.845Z,85.89
2018-11-29T03:19:52.810Z,85.8
2018-11-29T03:20:52.532Z,85.56
2018-11-29T03:21:52.517Z,85.18
2018-11-29T03:22:52.749Z,85.22
2018-11-29T03:23:52.467Z,85.37
2018-11-29T03:24:52.451Z,85.41
2018-11-29T03:25:52.686Z,85.94
2018-11-29T03:26:52.674Z,85.8
2018-11-29T03:27:52.682Z,85.32
2018-11-29T03:28:52.631Z,85.13
2018-11-29T03:29:52.611Z,85.41
2018-11-29T03:30:52.363Z,85.89
2018-11-29T03:31:52.591Z,85.13
2018-11-29T03:32:52.582Z,85.6
2018-11-29T03:33:52.290Z,85.56
2018-11-29T03:34:52.265Z,85.37
2018-11-29T03:35:52.248Z,84.94
2018-11-29T03:36:52.492Z,85.6
2018-11-29T03:37:52.492Z,85.47
2018-11-29T03:38:52.193Z,85.51
2018-11-29T03:39:52.434Z,85.8
2018-11-29T03:40:52.406Z,85.22
2018-11-29T03:41:52.386Z,85.41
2018-11-29T03:42:52.371Z,85.51
2018-11-29T03:43:52.097Z,85.41
2018-11-29T03:44:52.344Z,85.51
2018-11-29T03:45:52.317Z,85.6
2018-11-29T03:46:52.046Z,85.13
2018-11-29T03:47:52.279Z,85.89
2018-11-29T03:48:52.004Z,85.51
2018-11-29T03:49:52.243Z,84.84
2018-11-29T03:50:51.972Z,85.22
2018-11-29T03:51:51.952Z,85.41
2018-11-29T03:52:51.931Z,85.22
2018-11-29T03:53:52.167Z,85.32
2018-11-29T03:54:52.151Z,85.6
2018-11-29T03:55:52.136Z,85.7
2018-11-29T03:56:52.133Z,85.89
2018-11-29T03:57:52.098Z,85.41
2018-11-29T03:58:52.103Z,85.22
2018-11-29T03:59:51.805Z,85.03
2018-11-29T04:00:52.056Z,85.51
2018-11-29T04:01:52.029Z,85.7
2018-11-29T04:02:51.752Z,85.41
2018-11-29T04:03:51.736Z,85.51
2018-11-29T04:04:51.708Z,85.41
2018-11-29T04:05:51.947Z,85.13
2018-11-29T04:06:51.939Z,85.03
2018-11-29T04:07:51.655Z,84.84
2018-11-29T04:08:51.895Z,84.65
2018-11-29T04:09:51.695Z,84.56
2018-11-29T04:10:51.619Z,84.36
2018-11-29T04:11:51.842Z,84.36
2018-11-29T04:12:51.825Z,83.8
2018-11-29T04:13:51.550Z,83.61
2018-11-29T04:14:51.782Z,83.28
2018-11-29T04:15:51.518Z,83.89
2018-11-29T04:16:51.737Z,83.75
2018-11-29T04:17:51.727Z,83.89
2018-11-29T04:18:51.711Z,83.98
2018-11-29T04:19:51.689Z,83.8
2018-11-29T04:20:51.672Z,83.75
2018-11-29T04:21:51.648Z,83.89
2018-11-29T04:22:51.398Z,83.7
2018-11-29T04:23:51.609Z,83.61
2018-11-29T04:24:51.593Z,84.17
2018-11-29T04:25:51.578Z,84.56
2018-11-29T04:26:51.560Z,84.17
2018-11-29T04:27:51.539Z,83.7
2018-11-29T04:28:51.268Z,83.7
2018-11-29T04:29:51.507Z,83.8
2018-11-29T04:30:51.485Z,83.03
2018-11-29T04:31:51.464Z,83.03
2018-11-29T04:32:51.192Z,83.41
2018-11-29T04:33:51.172Z,83.89
2018-11-29T04:34:51.410Z,83.03
2018-11-29T04:35:51.409Z,83.7
2018-11-29T04:36:51.376Z,84.08
2018-11-29T04:37:51.105Z,83.13
2018-11-29T04:38:51.332Z,83.32
2018-11-29T04:39:51.315Z,83.61
2018-11-29T04:40:51.046Z,83.13
2018-11-29T04:41:51.280Z,82.84
2018-11-29T04:42:51.262Z,83.61
2018-11-29T04:43:51.246Z,83.03
2018-11-29T04:44:51.234Z,82.84
2018-11-29T04:45:51.213Z,82.18
2018-11-29T04:46:51.191Z,82.84
2018-11-29T04:47:51.173Z,81.79
2018-11-29T04:48:51.153Z,81.98
2018-11-29T04:49:50.880Z,82.18
2018-11-29T04:50:52.019Z,80.08
2018-11-29T04:51:51.101Z,73.61
2018-11-29T04:52:50.834Z,69.13
2018-11-29T04:53:50.809Z,65.51
2018-11-29T04:54:51.041Z,61.67
2018-11-29T04:55:50.799Z,58.62
2018-11-29T04:56:50.761Z,57.77
2018-11-29T04:57:50.730Z,54.91
2018-11-29T04:58:50.966Z,51.39
2018-11-29T04:59:50.946Z,49.4
2018-11-29T05:00:50.677Z,49.58
2018-11-29T05:01:50.909Z,47.58
2018-11-29T05:02:50.892Z,48.92
2018-11-29T05:03:50.618Z,49.68
2018-11-29T05:04:50.850Z,51.01
2018-11-29T05:05:50.587Z,53.58
2018-11-29T05:06:50.818Z,55.87
2018-11-29T05:07:50.805Z,56.05
2018-11-29T05:08:50.808Z,55.58
2018-11-29T05:09:50.507Z,57.58
2018-11-29T05:10:50.738Z,57.48
2018-11-29T05:11:50.496Z,59.48
2018-11-29T05:12:50.710Z,60.53
2018-11-29T05:13:50.692Z,61.86
2018-11-29T05:14:50.669Z,61.86
2018-11-29T05:15:50.648Z,61.67
2018-11-29T05:16:50.635Z,62.05
2018-11-29T05:17:50.554Z,62.81
2018-11-29T05:18:50.338Z,63.29
2018-11-29T05:19:50.574Z,64.34
2018-11-29T05:20:50.563Z,64.15
2018-11-29T05:21:50.558Z,64.34
2018-11-29T05:22:50.262Z,65.1
2018-11-29T05:23:50.242Z,65.29
2018-11-29T05:24:50.482Z,65.51
2018-11-29T05:25:50.460Z,66.43
2018-11-29T05:26:50.191Z,66.62
2018-11-29T05:27:50.441Z,65.58
2018-11-29T05:28:50.160Z,65.8
2018-11-29T05:29:50.384Z,66.62
2018-11-29T05:30:50.363Z,67.61
2018-11-29T05:31:50.358Z,67.89
2018-11-29T05:32:50.073Z,68.27
2018-11-29T05:33:50.308Z,67.22
2018-11-29T05:34:50.290Z,68.37
2018-11-29T05:35:50.272Z,67.7
2018-11-29T05:36:50.253Z,67.61
2018-11-29T05:37:50.236Z,67.76
2018-11-29T05:38:50.215Z,67.8
2018-11-29T05:39:49.991Z,67.51
2018-11-29T05:40:50.180Z,67.22
2018-11-29T05:41:50.171Z,68.75
2018-11-29T05:42:50.138Z,68.65
2018-11-29T05:43:49.875Z,68.37
2018-11-29T05:44:49.889Z,69.89
2018-11-29T05:45:49.830Z,69.13
2018-11-29T05:46:50.074Z,69.7
2018-11-29T05:47:50.047Z,69.79
2018-11-29T05:48:50.030Z,69.7
2018-11-29T05:49:49.756Z,69.79
2018-11-29T05:50:49.763Z,69.13
2018-11-29T05:51:49.719Z,69.42
2018-11-29T05:52:49.701Z,69.7
2018-11-29T05:53:49.681Z,68.94
2018-11-29T05:54:49.917Z,69.04
2018-11-29T05:55:49.645Z,70.37
2018-11-29T05:56:49.886Z,70.18
2018-11-29T05:57:49.861Z,70.75
2018-11-29T05:58:49.842Z,70.47
2018-11-29T05:59:49.825Z,71.8
2018-11-29T06:00:49.834Z,71.7
2018-11-29T06:01:49.533Z,72.17
2018-11-29T06:02:49.515Z,72.75
2018-11-29T06:03:49.751Z,72.75
2018-11-29T06:04:49.739Z,72.56
2018-11-29T06:05:49.712Z,72.27
2018-11-29T06:06:49.440Z,72.46
2018-11-29T06:07:49.679Z,72.94
2018-11-29T06:08:49.403Z,73.89
2018-11-29T06:09:49.656Z,75.04
2018-11-29T06:10:49.621Z,74.75
2018-11-29T06:11:49.350Z,74.94
2018-11-29T06:12:49.335Z,74.37
2018-11-29T06:13:49.572Z,74.08
2018-11-29T06:14:49.574Z,73.32
2018-11-29T06:15:49.530Z,73.7
2018-11-29T06:16:49.508Z,72.94
2018-11-29T06:17:49.245Z,72.94
2018-11-29T06:18:49.477Z,72.65
2018-11-29T06:19:49.203Z,72.65
2018-11-29T06:20:49.234Z,73.41
2018-11-29T06:21:49.422Z,73.7
2018-11-29T06:22:49.402Z,73.8
2018-11-29T06:23:49.126Z,73.8
2018-11-29T06:24:49.113Z,73.41
2018-11-29T06:25:49.348Z,73.61
2018-11-29T06:26:49.328Z,73.13
2018-11-29T06:27:49.343Z,72.56
2018-11-29T06:28:49.037Z,72.75
2018-11-29T06:29:49.025Z,72.56
2018-11-29T06:30:49.003Z,73.13
2018-11-29T06:31:48.987Z,73.13
2018-11-29T06:32:48.976Z,72.85
2018-11-29T06:33:49.212Z,72.94
2018-11-29T06:34:49.193Z,72.56
2018-11-29T06:35:49.173Z,72.75
2018-11-29T06:36:49.163Z,72.56
2018-11-29T06:37:49.141Z,71.8
2018-11-29T06:38:48.856Z,71.8
2018-11-29T06:39:49.094Z,71.13
2018-11-29T06:40:49.124Z,70.37
2018-11-29T06:41:49.058Z,69.79
2018-11-29T06:42:49.038Z,69.79
2018-11-29T06:43:48.764Z,69.23
2018-11-29T06:44:48.749Z,69.51
2018-11-29T06:45:48.979Z,70.27
2018-11-29T06:46:48.968Z,71.13
2018-11-29T06:47:48.694Z,70.65
2018-11-29T06:48:48.954Z,71.03
2018-11-29T06:49:48.908Z,71.22
2018-11-29T06:50:48.649Z,71.51
2018-11-29T06:51:48.879Z,71.51
2018-11-29T06:52:48.856Z,70.84
2018-11-29T06:53:48.836Z,70.94
2018-11-29T06:54:48.565Z,71.42
2018-11-29T06:55:48.547Z,70.84
2018-11-29T06:56:48.785Z,71.8
2018-11-29T06:57:48.524Z,72.17
2018-11-29T06:58:48.503Z,72.56
2018-11-29T06:59:48.736Z,72.56
2018-11-29T07:00:48.458Z,72.65
2018-11-29T07:01:48.699Z,71.8
2018-11-29T07:02:48.674Z,71.7
2018-11-29T07:03:48.406Z,71.32
2018-11-29T07:04:48.635Z,71.22
2018-11-29T07:05:48.626Z,71.32
2018-11-29T07:06:48.603Z,71.32
2018-11-29T07:07:48.582Z,72.27
2018-11-29T07:08:48.327Z,71.61
2018-11-29T07:09:48.293Z,71.89
2018-11-29T07:10:48.530Z,71.7
2018-11-29T07:11:48.511Z,71.98
2018-11-29T07:12:48.504Z,72.88
2018-11-29T07:13:48.476Z,73.7
2018-11-29T07:14:48.200Z,73.61
2018-11-29T07:15:48.439Z,73.26
2018-11-29T07:16:48.430Z,73.83
2018-11-29T07:17:48.552Z,74.6
2018-11-29T07:18:48.384Z,74.02
2018-11-29T07:19:48.371Z,75.07
2018-11-29T07:20:48.347Z,74.12
2018-11-29T07:21:48.328Z,75.16
2018-11-29T07:22:48.309Z,75.45
2018-11-29T07:23:48.288Z,75.74
2018-11-29T07:24:48.017Z,75.84
2018-11-29T07:25:48.257Z,76.4
2018-11-29T07:26:48.234Z,76.5
2018-11-29T07:27:48.216Z,76.79
2018-11-29T07:28:47.945Z,76.98
2018-11-29T07:29:48.177Z,77.64
2018-11-29T07:30:48.171Z,76.79
2018-11-29T07:31:48.149Z,76.5
2018-11-29T07:32:47.880Z,76.31
2018-11-29T07:33:48.106Z,76.88
2018-11-29T07:34:47.833Z,76.69
2018-11-29T07:35:47.840Z,76.69
2018-11-29T07:36:48.056Z,75.45
2018-11-29T07:37:47.784Z,75.74
2018-11-29T07:38:48.024Z,74.98
2018-11-29T07:39:48.000Z,74.98
2018-11-29T07:40:47.980Z,75.45
2018-11-29T07:41:47.710Z,74.5
2018-11-29T07:42:48.002Z,74.98
2018-11-29T07:43:47.675Z,75.04
2018-11-29T07:44:47.909Z,75.16
2018-11-29T07:45:47.639Z,75.36
2018-11-29T07:46:47.874Z,75.64
2018-11-29T07:47:47.855Z,75.74
2018-11-29T07:48:47.840Z,75.55
2018-11-29T07:49:47.821Z,75.74
2018-11-29T07:50:47.544Z,75.16
2018-11-29T07:51:47.785Z,72.6
2018-11-29T07:52:47.507Z,75.16
2018-11-29T07:53:47.528Z,75.84
2018-11-29T07:54:47.727Z,75.93
2018-11-29T07:55:47.711Z,75.16
2018-11-29T07:56:47.436Z,75.64
2018-11-29T07:57:47.693Z,74.98
2018-11-29T07:58:51.526Z,74.88
2018-11-29T07:59:47.386Z,74.46
2018-11-29T08:00:47.366Z,75.64
2018-11-29T08:01:47.601Z,75.93
2018-11-29T08:02:47.601Z,76.69
2018-11-29T08:03:47.315Z,76.79
2018-11-29T08:04:47.557Z,76.88
2018-11-29T08:05:47.534Z,76.84
2018-11-29T08:06:47.257Z,77.07
2018-11-29T08:07:50.096Z,77.17
2018-11-29T08:08:47.475Z,77.74
2018-11-29T08:09:47.457Z,78.65
2018-11-29T08:10:47.443Z,78.75
2018-11-29T08:11:47.167Z,78.69
2018-11-29T08:12:47.406Z,78.75
2018-11-29T08:13:47.405Z,78.46
2018-11-29T08:14:47.373Z,80.08
2018-11-29T08:15:47.353Z,79.6
2018-11-29T08:16:47.340Z,79.99
2018-11-29T08:17:47.316Z,79.32
2018-11-29T08:18:47.305Z,81.13
2018-11-29T08:19:47.286Z,81.03
2018-11-29T08:20:47.280Z,81.23
2018-11-29T08:21:47.254Z,81.51
2018-11-29T08:22:47.231Z,82.08
2018-11-29T08:23:47.210Z,82.08
2018-11-29T08:24:47.195Z,82.93
2018-11-29T08:25:47.175Z,82.46
2018-11-29T08:26:47.158Z,83.32
2018-11-29T08:27:46.888Z,83.22
2018-11-29T08:28:47.123Z,83.89
2018-11-29T08:29:46.854Z,84.17
2018-11-29T08:30:46.832Z,85.41
2018-11-29T08:31:46.815Z,85.22
2018-11-29T08:32:47.054Z,86.03
2018-11-29T08:33:47.040Z,85.41
2018-11-29T08:34:46.768Z,86.65
2018-11-29T08:35:46.743Z,86.46
2018-11-29T08:36:46.981Z,85.99
2018-11-29T08:37:46.963Z,86.18
2018-11-29T08:38:46.955Z,86.84
2018-11-29T08:39:46.673Z,88.46
2018-11-29T08:40:46.909Z,88.08
2018-11-29T08:41:46.644Z,88.03
2018-11-29T08:42:46.870Z,88.51
2018-11-29T08:43:46.857Z,89.07
2018-11-29T08:44:46.844Z,89.89
2018-11-29T08:45:46.821Z,89.84
2018-11-29T08:46:46.597Z,89.46
2018-11-29T08:47:46.803Z,89.46
2018-11-29T08:48:46.797Z,91.27
2018-11-29T08:49:46.753Z,90.41
2018-11-29T08:50:46.480Z,91.55
2018-11-29T08:51:46.478Z,92.32
2018-11-29T08:52:46.448Z,91.74
2018-11-29T08:53:46.680Z,91.94
2018-11-29T08:54:46.663Z,91.84
2018-11-29T08:55:46.643Z,92.69
2018-11-29T08:56:46.636Z,92.41
2018-11-29T08:57:46.611Z,91.65
2018-11-29T08:58:46.590Z,92.79
2018-11-29T08:59:46.576Z,92.03
2018-11-29T09:00:46.563Z,92.22
2018-11-29T09:01:46.538Z,91.84
2018-11-29T09:02:46.522Z,92.22
2018-11-29T09:03:46.504Z,92.69
2018-11-29T09:04:46.235Z,93.08
2018-11-29T09:05:46.468Z,94.22
2018-11-29T09:06:46.198Z,93.27
2018-11-29T09:07:46.429Z,92.89
2018-11-29T09:08:46.162Z,93.93
2018-11-29T09:09:46.398Z,92.98
2018-11-29T09:10:46.390Z,93.27
2018-11-29T09:11:47.559Z,92.6
2018-11-29T09:12:46.353Z,93.17
2018-11-29T09:13:46.075Z,94.51
2018-11-29T09:14:46.056Z,94.98
2018-11-29T09:15:46.299Z,93.84
2018-11-29T09:16:46.301Z,94.32
2018-11-29T09:17:46.271Z,93.93
2018-11-29T09:18:46.244Z,94.79
2018-11-29T09:19:45.977Z,94.6
2018-11-29T09:20:46.213Z,95.65
2018-11-29T09:21:45.940Z,96.7
2018-11-29T09:22:45.922Z,95.36
2018-11-29T09:23:46.161Z,94.7
2018-11-29T09:24:46.136Z,94.32
2018-11-29T09:25:45.873Z,95.75
2018-11-29T09:26:46.105Z,94.98
2018-11-29T09:27:45.833Z,95.08
2018-11-29T09:28:46.070Z,95.08
2018-11-29T09:29:45.801Z,95.08
2018-11-29T09:30:45.785Z,95.17
2018-11-29T09:31:46.017Z,95.84
2018-11-29T09:32:46.006Z,96.6
2018-11-29T09:33:45.983Z,96.89
2018-11-29T09:34:45.969Z,95.94
2018-11-29T09:35:45.695Z,96.22
2018-11-29T09:36:45.685Z,96.6
2018-11-29T09:37:45.918Z,96.41
2018-11-29T09:38:45.901Z,96.6
2018-11-29T09:39:45.629Z,95.94
2018-11-29T09:40:45.870Z,96.98
2018-11-29T09:41:45.594Z,96.8
2018-11-29T09:42:45.835Z,97.65
2018-11-29T09:43:45.822Z,97.84
2018-11-29T09:44:45.798Z,99.27
2018-11-29T09:45:45.527Z,92.22
2018-11-29T09:46:45.511Z,93.27
2018-11-29T09:47:45.747Z,93.88
2018-11-29T09:48:45.479Z,92.36
2018-11-29T09:49:45.468Z,94.37
2018-11-29T09:50:45.705Z,94.84
2018-11-29T09:51:45.689Z,97.08
2018-11-29T09:52:45.670Z,97.51
2018-11-29T09:53:45.653Z,99.89
2018-11-29T09:54:45.374Z,99.41
2018-11-29T09:55:45.611Z,94.17
2018-11-29T09:56:45.600Z,96.75
2018-11-29T09:57:45.581Z,99.99
2018-11-29T09:58:45.566Z,99.51
2018-11-29T09:59:45.547Z,99.99
2018-11-29T10:00:45.541Z,99.99
2018-11-29T10:01:45.575Z,99.99
2018-11-29T10:02:45.248Z,99.99
2018-11-29T10:03:45.477Z,99.99
2018-11-29T10:04:45.899Z,99.99
2018-11-29T10:05:45.441Z,99.99
2018-11-29T10:06:45.436Z,99.99
2018-11-29T10:07:45.413Z,99.99
2018-11-29T10:08:45.137Z,99.99
2018-11-29T10:09:45.118Z,99.99
2018-11-29T10:10:45.358Z,99.99
2018-11-29T10:11:45.089Z,99.99
2018-11-29T10:12:45.322Z,99.99
2018-11-29T10:13:48.691Z,99.99
2018-11-29T10:14:45.506Z,99.99
2018-11-29T10:15:45.269Z,99.99
2018-11-29T10:16:45.012Z,99.99
2018-11-29T10:17:45.241Z,99.99
2018-11-29T10:18:45.229Z,99.99
2018-11-29T10:19:44.956Z,99.99
2018-11-29T10:20:45.189Z,99.99
2018-11-29T10:21:45.178Z,99.99
2018-11-29T10:22:45.151Z,99.99
2018-11-29T10:23:44.878Z,99.99
2018-11-29T10:24:45.129Z,99.99
2018-11-29T10:25:44.843Z,99.99
2018-11-29T10:26:45.084Z,99.99
2018-11-29T10:27:44.812Z,99.99
2018-11-29T10:28:45.049Z,99.99
2018-11-29T10:29:45.030Z,99.99
2018-11-29T10:30:45.016Z,99.99
2018-11-29T10:31:44.742Z,99.99
2018-11-29T10:32:44.977Z,99.99
2018-11-29T10:33:44.962Z,99.99
2018-11-29T10:34:44.942Z,99.99
2018-11-29T10:35:45.120Z,99.99
2018-11-29T10:36:44.911Z,99.99
2018-11-29T10:37:44.900Z,99.99
2018-11-29T10:38:44.626Z,99.99
2018-11-29T10:39:44.867Z,99.99
2018-11-29T10:40:44.590Z,99.99
2018-11-29T10:41:44.578Z,99.99
2018-11-29T10:42:44.819Z,99.99
2018-11-29T10:43:44.798Z,99.99
2018-11-29T10:44:44.542Z,99.99
2018-11-29T10:45:44.761Z,99.99
2018-11-29T10:46:44.747Z,99.99
2018-11-29T10:47:44.734Z,99.99
2018-11-29T10:48:44.714Z,99.99
2018-11-29T10:49:44.783Z,99.99
2018-11-29T10:50:44.518Z,99.99
2018-11-29T10:51:44.404Z,99.99
2018-11-29T10:52:44.394Z,99.99
2018-11-29T10:53:44.375Z,99.99
2018-11-29T10:54:44.399Z,99.99
2018-11-29T10:55:44.595Z,99.99
2018-11-29T10:56:44.583Z,99.99
2018-11-29T10:57:44.329Z,99.99
2018-11-29T10:58:44.290Z,99.99
2018-11-29T10:59:44.271Z,99.99
2018-11-29T11:00:44.515Z,99.99
2018-11-29T11:01:44.492Z,99.99
2018-11-29T11:02:44.474Z,99.99
2018-11-29T11:03:44.467Z,99.99
2018-11-29T11:04:44.449Z,99.99
2018-11-29T11:05:44.428Z,99.99
2018-11-29T11:06:44.407Z,99.99
2018-11-29T11:07:44.392Z,99.99
2018-11-29T11:08:44.378Z,99.99
2018-11-29T11:09:44.103Z,99.99
2018-11-29T11:10:44.087Z,99.99
2018-11-29T11:11:44.073Z,99.99
2018-11-29T11:12:44.312Z,99.99
2018-11-29T11:13:44.041Z,99.99
2018-11-29T11:14:44.307Z,99.99
2018-11-29T11:15:44.003Z,99.99
2018-11-29T11:16:44.263Z,99.99
2018-11-29T11:17:44.222Z,99.99
2018-11-29T11:18:44.409Z,99.99
2018-11-29T11:19:43.934Z,99.99
2018-11-29T11:20:44.230Z,99.99
2018-11-29T11:21:44.160Z,99.99
2018-11-29T11:22:43.887Z,99.99
2018-11-29T11:23:44.169Z,99.99
2018-11-29T11:24:43.849Z,99.99
2018-11-29T11:25:44.089Z,99.99
2018-11-29T11:26:44.076Z,99.99
2018-11-29T11:27:44.063Z,99.99
2018-11-29T11:28:44.052Z,99.99
2018-11-29T11:29:44.022Z,99.99
2018-11-29T11:30:43.750Z,99.99
2018-11-29T11:31:44.040Z,99.99
2018-11-29T11:32:43.975Z,99.99
2018-11-29T11:33:43.977Z,99.99
2018-11-29T11:34:43.940Z,99.99
2018-11-29T11:35:43.929Z,99.99
2018-11-29T11:36:43.905Z,99.99
2018-11-29T11:37:43.892Z,99.99
2018-11-29T11:38:43.876Z,99.99
2018-11-29T11:39:43.598Z,99.99
2018-11-29T11:40:43.835Z,99.99
2018-11-29T11:41:43.579Z,99.99
2018-11-29T11:42:43.556Z,99.99
2018-11-29T11:43:43.971Z,99.99
2018-11-29T11:44:43.515Z,99.99
2018-11-29T11:45:43.517Z,99.99
2018-11-29T11:46:43.488Z,99.99
2018-11-29T11:47:43.724Z,99.99
2018-11-29T11:48:43.706Z,99.99
2018-11-29T11:49:43.688Z,99.99
2018-11-29T11:50:43.677Z,99.99
2018-11-29T11:51:43.654Z,99.99
2018-11-29T11:52:43.637Z,99.99
2018-11-29T11:53:43.622Z,99.99
2018-11-29T11:54:43.605Z,99.99
2018-11-29T11:55:43.333Z,99.99
2018-11-29T11:56:43.316Z,99.99
2018-11-29T11:57:43.558Z,99.99
2018-11-29T11:58:43.284Z,99.99
2018-11-29T11:59:43.523Z,99.99
2018-11-29T12:00:43.512Z,99.99
2018-11-29T12:01:43.486Z,99.99
2018-11-29T12:02:43.326Z,99.99
2018-11-29T12:03:43.205Z,99.99
2018-11-29T12:04:43.483Z,99.99
2018-11-29T12:05:43.447Z,99.99
2018-11-29T12:06:43.415Z,99.99
2018-11-29T12:07:43.400Z,99.99
2018-11-29T12:08:43.377Z,99.99
2018-11-29T12:09:43.357Z,99.99
2018-11-29T12:10:43.088Z,99.99
2018-11-29T12:11:43.168Z,99.99
2018-11-29T12:12:43.351Z,99.99
2018-11-29T12:13:43.299Z,99.99
2018-11-29T12:14:43.281Z,99.99
2018-11-29T12:15:43.261Z,99.99
2018-11-29T12:16:43.242Z,99.99
2018-11-29T12:17:43.243Z,99.99
2018-11-29T12:18:43.211Z,99.99
2018-11-29T12:19:43.544Z,99.99
2018-11-29T12:20:43.181Z,99.99
2018-11-29T12:21:43.162Z,99.99
2018-11-29T12:22:43.143Z,99.99
2018-11-29T12:23:43.127Z,99.99
2018-11-29T12:24:43.119Z,99.99
2018-11-29T12:25:43.094Z,99.99
2018-11-29T12:26:42.825Z,99.99
2018-11-29T12:27:43.065Z,99.99
2018-11-29T12:28:43.050Z,99.99
2018-11-29T12:29:43.041Z,99.99
2018-11-29T12:30:43.013Z,99.99
2018-11-29T12:31:42.747Z,99.99
2018-11-29T12:32:42.981Z,99.99
2018-11-29T12:33:42.709Z,99.99
2018-11-29T12:34:42.998Z,99.99
2018-11-29T12:35:42.944Z,99.99
2018-11-29T12:36:42.910Z,99.99
2018-11-29T12:37:42.900Z,99.99
2018-11-29T12:38:42.633Z,99.99
2018-11-29T12:39:42.864Z,99.99
2018-11-29T12:40:42.589Z,99.99
2018-11-29T12:41:42.582Z,99.99
2018-11-29T12:42:42.566Z,99.99
2018-11-29T12:43:42.809Z,99.99
2018-11-29T12:44:42.786Z,99.99
2018-11-29T12:45:42.767Z,99.99
2018-11-29T12:46:42.753Z,99.99
2018-11-29T12:47:42.741Z,99.99
2018-11-29T12:48:42.714Z,94.46
2018-11-29T12:49:42.709Z,97.66
2018-11-29T12:50:42.689Z,91.74
2018-11-29T12:51:42.661Z,90.03
2018-11-29T12:52:42.649Z,87.83
2018-11-29T12:53:42.377Z,91.64
2018-11-29T12:54:42.612Z,86.16
2018-11-29T12:55:42.349Z,81.97